createdAt,value
2023-02-26T00:01:02.275Z,64.53
2023-02-26T00:02:05.091Z,64.62
2023-02-26T00:03:08.958Z,64.54
2023-02-26T00:04:11.920Z,64.58
2023-02-26T00:05:16.148Z,64.69
2023-02-26T00:06:19.239Z,65.44
2023-02-26T00:07:22.744Z,64.88
2023-02-26T00:08:25.475Z,65.17
2023-02-26T00:09:29.306Z,64.89
2023-02-26T00:10:33.441Z,64.44
2023-02-26T00:11:37.387Z,64.65
2023-02-26T00:12:40.868Z,65.07
2023-02-26T00:13:46.816Z,64.80
2023-02-26T00:14:50.015Z,64.60
2023-02-26T00:16:00.296Z,64.94
2023-02-26T00:17:28.025Z,64.78
2023-02-26T00:18:31.021Z,65.55
2023-02-26T00:19:34.805Z,65.25
2023-02-26T00:20:37.971Z,64.88
2023-02-26T00:21:42.050Z,64.94
2023-02-26T00:22:45.067Z,64.94
2023-02-26T00:23:48.968Z,65.24
2023-02-26T00:24:51.763Z,65.18
2023-02-26T00:26:06.925Z,65.41
2023-02-26T00:27:11.558Z,65.52
2023-02-26T00:28:16.074Z,65.19
2023-02-26T00:29:19.327Z,65.50
2023-02-26T00:30:23.697Z,65.50
2023-02-26T00:31:27.144Z,65.10
2023-02-26T00:32:32.164Z,64.76
2023-02-26T00:33:35.190Z,64.96
2023-02-26T00:34:40.653Z,64.49
2023-02-26T00:35:44.534Z,65.00
2023-02-26T00:37:01.682Z,64.68
2023-02-26T00:38:07.517Z,65.40
2023-02-26T00:39:28.600Z,65.92
2023-02-26T00:40:45.209Z,66.66
2023-02-26T00:41:49.825Z,66.56
2023-02-26T00:42:57.057Z,67.02
2023-02-26T00:44:00.232Z,66.36
2023-02-26T00:45:04.639Z,66.06
2023-02-26T00:46:25.440Z,66.35
2023-02-26T00:47:34.533Z,65.78
2023-02-26T00:48:51.920Z,65.45
2023-02-26T00:50:06.906Z,65.82
2023-02-26T00:51:18.609Z,65.58
2023-02-26T00:52:29.075Z,66.01
2023-02-26T00:53:37.863Z,66.47
2023-02-26T00:54:41.471Z,66.47
2023-02-26T00:55:44.994Z,66.52
2023-02-26T00:56:51.172Z,66.12
2023-02-26T00:57:54.784Z,66.22
2023-02-26T00:58:58.022Z,66.31
2023-02-26T01:00:01.885Z,66.93
2023-02-26T01:01:04.552Z,67.11
2023-02-26T01:02:09.179Z,66.70
2023-02-26T01:03:13.580Z,66.99
2023-02-26T01:04:20.476Z,66.68
2023-02-26T01:05:23.862Z,67.68
2023-02-26T01:06:31.729Z,67.56
2023-02-26T01:07:42.240Z,67.12
2023-02-26T01:08:52.648Z,66.93
2023-02-26T01:09:55.681Z,66.70
2023-02-26T01:11:00.920Z,67.06
2023-02-26T01:12:08.451Z,67.06
2023-02-26T01:13:13.102Z,66.80
2023-02-26T01:14:16.199Z,67.06
2023-02-26T01:15:20.901Z,67.03
2023-02-26T01:16:28.345Z,67.23
2023-02-26T01:17:37.414Z,67.92
2023-02-26T01:18:46.402Z,67.87
2023-02-26T01:19:53.549Z,68.33
2023-02-26T01:21:00.371Z,68.44
2023-02-26T01:22:10.306Z,68.48
2023-02-26T01:23:17.491Z,68.40
2023-02-26T01:24:23.190Z,68.94
2023-02-26T01:25:30.577Z,68.46
2023-02-26T01:26:33.925Z,68.50
2023-02-26T01:27:39.709Z,68.16
2023-02-26T01:28:42.689Z,68.28
2023-02-26T01:29:46.821Z,68.55
2023-02-26T01:30:50.754Z,68.05
2023-02-26T01:32:03.635Z,68.09
2023-02-26T01:33:15.107Z,67.95
2023-02-26T01:34:23.911Z,67.94
2023-02-26T01:35:43.867Z,67.43
2023-02-26T01:36:56.031Z,67.29
2023-02-26T01:38:04.001Z,67.71
2023-02-26T01:39:11.906Z,67.76
2023-02-26T01:40:44.780Z,67.12
2023-02-26T01:41:51.094Z,67.80
2023-02-26T01:43:01.484Z,67.90
2023-02-26T01:44:16.858Z,68.09
2023-02-26T01:45:26.914Z,67.63
2023-02-26T01:46:38.201Z,67.80
2023-02-26T01:47:46.941Z,67.40
2023-02-26T01:48:52.296Z,67.38
2023-02-26T01:49:56.512Z,67.57
2023-02-26T01:50:58.869Z,67.25
2023-02-26T01:52:03.531Z,67.36
2023-02-26T01:53:24.484Z,67.26
2023-02-26T01:54:31.567Z,67.19
2023-02-26T01:55:34.180Z,67.45
2023-02-26T01:56:38.705Z,67.12
2023-02-26T01:57:41.817Z,66.91
2023-02-26T01:58:50.001Z,67.22
2023-02-26T01:59:54.431Z,66.65
2023-02-26T02:00:58.408Z,67.05
2023-02-26T02:02:04.514Z,66.92
2023-02-26T02:03:08.463Z,66.59
2023-02-26T02:04:15.140Z,66.77
2023-02-26T02:05:23.638Z,67.42
2023-02-26T02:06:28.849Z,67.99
2023-02-26T02:07:32.429Z,68.21
2023-02-26T02:08:36.177Z,68.12
2023-02-26T02:09:40.393Z,68.38
2023-02-26T02:10:46.794Z,67.94
2023-02-26T02:12:11.307Z,67.86
2023-02-26T02:13:25.714Z,67.18
2023-02-26T02:14:41.749Z,67.95
2023-02-26T02:15:50.057Z,67.73
2023-02-26T02:17:00.953Z,67.93
2023-02-26T02:18:10.549Z,67.52
2023-02-26T02:19:35.270Z,67.28
2023-02-26T02:21:16.572Z,68.10
2023-02-26T02:22:47.499Z,67.26
2023-02-26T02:23:56.238Z,67.50
2023-02-26T02:25:14.473Z,67.63
2023-02-26T02:26:44.443Z,67.22
2023-02-26T02:27:54.601Z,66.99
2023-02-26T02:29:08.890Z,67.04
2023-02-26T02:30:34.556Z,67.47
2023-02-26T02:31:45.823Z,67.67
2023-02-26T02:32:54.815Z,67.90
2023-02-26T02:34:04.238Z,67.97
2023-02-26T02:35:18.375Z,67.96
2023-02-26T02:36:26.292Z,67.94
2023-02-26T02:37:38.418Z,68.07
2023-02-26T02:38:47.548Z,67.90
2023-02-26T02:39:54.656Z,67.66
2023-02-26T02:41:11.519Z,67.51
2023-02-26T02:42:24.780Z,67.32
2023-02-26T02:43:32.889Z,68.26
2023-02-26T02:44:44.558Z,67.73
2023-02-26T02:45:54.316Z,67.99
2023-02-26T02:47:01.262Z,68.36
2023-02-26T02:48:09.954Z,67.95
2023-02-26T02:49:19.471Z,68.63
2023-02-26T02:50:28.339Z,68.94
2023-02-26T02:51:35.567Z,68.17
2023-02-26T02:52:43.478Z,67.60
2023-02-26T02:53:52.435Z,67.81
2023-02-26T02:54:59.390Z,67.27
2023-02-26T02:56:09.084Z,67.19
2023-02-26T02:57:18.196Z,66.86
2023-02-26T02:58:26.253Z,66.73
2023-02-26T02:59:33.805Z,66.02
2023-02-26T03:00:42.702Z,65.84
2023-02-26T03:01:46.250Z,66.18
2023-02-26T03:02:56.489Z,66.05
2023-02-26T03:04:02.282Z,65.84
2023-02-26T03:05:07.087Z,65.53
2023-02-26T03:06:09.820Z,65.44
2023-02-26T03:07:13.585Z,65.77
2023-02-26T03:08:18.549Z,65.60
2023-02-26T03:09:22.484Z,65.31
2023-02-26T03:10:25.418Z,65.29
2023-02-26T03:11:29.071Z,65.55
2023-02-26T03:12:33.149Z,65.35
2023-02-26T03:13:37.265Z,64.77
2023-02-26T03:14:40.427Z,64.47
2023-02-26T03:16:03.383Z,64.71
2023-02-26T03:17:28.772Z,64.96
2023-02-26T03:18:47.082Z,64.86
2023-02-26T03:20:07.821Z,64.83
2023-02-26T03:21:18.115Z,64.75
2023-02-26T03:22:28.286Z,65.18
2023-02-26T03:23:36.558Z,65.21
2023-02-26T03:24:49.420Z,64.93
2023-02-26T03:25:56.969Z,64.96
2023-02-26T03:27:05.643Z,64.39
2023-02-26T03:28:12.820Z,65.38
2023-02-26T03:29:25.677Z,65.65
2023-02-26T03:30:38.033Z,65.54
2023-02-26T03:31:49.433Z,65.26
2023-02-26T03:33:03.062Z,64.85
2023-02-26T03:34:15.496Z,65.07
2023-02-26T03:35:23.099Z,64.77
2023-02-26T03:36:32.659Z,64.85
2023-02-26T03:37:40.328Z,64.95
2023-02-26T03:38:48.319Z,64.56
2023-02-26T03:39:56.640Z,64.55
2023-02-26T03:41:05.937Z,64.07
2023-02-26T03:42:15.150Z,64.07
2023-02-26T03:43:24.046Z,64.31
2023-02-26T03:44:31.456Z,64.51
2023-02-26T03:45:40.870Z,64.37
2023-02-26T03:46:46.689Z,63.58
2023-02-26T03:47:54.555Z,62.88
2023-02-26T03:48:59.935Z,62.44
2023-02-26T03:50:08.469Z,62.09
2023-02-26T03:51:13.138Z,61.91
2023-02-26T03:52:18.134Z,62.42
2023-02-26T03:53:26.026Z,61.46
2023-02-26T03:54:33.189Z,61.12
2023-02-26T03:55:38.985Z,61.76
2023-02-26T03:56:46.205Z,62.09
2023-02-26T03:57:49.932Z,62.36
2023-02-26T03:58:53.520Z,62.56
2023-02-26T03:59:57.287Z,62.17
2023-02-26T04:01:06.106Z,62.21
2023-02-26T04:02:16.731Z,63.08
2023-02-26T04:03:29.054Z,62.64
2023-02-26T04:04:36.113Z,61.96
2023-02-26T04:05:43.980Z,61.97
2023-02-26T04:06:47.888Z,61.46
2023-02-26T04:07:52.165Z,61.79
2023-02-26T04:08:55.972Z,62.23
2023-02-26T04:09:59.528Z,62.18
2023-02-26T04:11:08.356Z,62.37
2023-02-26T04:12:12.202Z,62.79
2023-02-26T04:13:14.717Z,62.30
2023-02-26T04:14:18.799Z,62.61
2023-02-26T04:15:21.564Z,62.72
2023-02-26T04:16:25.525Z,61.98
2023-02-26T04:17:30.480Z,62.20
2023-02-26T04:18:33.084Z,61.35
2023-02-26T04:19:36.881Z,60.99
2023-02-26T04:20:41.290Z,60.92
2023-02-26T04:21:44.904Z,60.47
2023-02-26T04:22:47.346Z,61.08
2023-02-26T04:23:51.326Z,61.80
2023-02-26T04:24:53.769Z,61.89
2023-02-26T04:25:57.365Z,61.70
2023-02-26T04:26:59.837Z,62.07
2023-02-26T04:28:03.504Z,61.90
2023-02-26T04:29:06.491Z,61.68
2023-02-26T04:30:11.256Z,61.88
2023-02-26T04:31:13.768Z,62.10
2023-02-26T04:32:17.376Z,62.42
2023-02-26T04:33:20.175Z,63.86
2023-02-26T04:34:23.651Z,62.85
2023-02-26T04:35:26.258Z,64.46
2023-02-26T04:36:31.321Z,64.02
2023-02-26T04:37:34.152Z,63.39
2023-02-26T04:38:37.942Z,62.85
2023-02-26T04:39:40.856Z,62.93
2023-02-26T04:40:44.733Z,64.44
2023-02-26T04:41:47.472Z,64.49
2023-02-26T04:42:51.114Z,64.42
2023-02-26T04:43:53.653Z,64.80
2023-02-26T04:44:57.272Z,65.85
2023-02-26T04:45:59.888Z,64.87
2023-02-26T04:47:03.424Z,64.67
2023-02-26T04:48:05.995Z,64.84
2023-02-26T04:49:09.481Z,65.97
2023-02-26T04:50:12.515Z,65.49
2023-02-26T04:51:15.992Z,65.90
2023-02-26T04:52:20.103Z,67.09
2023-02-26T04:53:23.916Z,66.88
2023-02-26T04:54:26.420Z,66.48
2023-02-26T04:55:29.886Z,66.99
2023-02-26T04:56:32.756Z,67.69
2023-02-26T04:57:36.954Z,68.09
2023-02-26T04:58:39.667Z,67.50
2023-02-26T04:59:43.008Z,68.22
2023-02-26T05:00:49.532Z,67.86
2023-02-26T05:01:53.004Z,67.91
2023-02-26T05:02:55.668Z,67.61
2023-02-26T05:03:59.131Z,67.60
2023-02-26T05:05:01.583Z,67.69
2023-02-26T05:06:05.745Z,67.14
2023-02-26T05:07:08.410Z,67.18
2023-02-26T05:08:13.469Z,66.62
2023-02-26T05:09:15.941Z,67.20
2023-02-26T05:10:19.513Z,67.71
2023-02-26T05:11:22.320Z,67.83
2023-02-26T05:12:26.320Z,67.81
2023-02-26T05:13:28.870Z,67.50
2023-02-26T05:14:32.521Z,67.13
2023-02-26T05:15:35.085Z,67.02
2023-02-26T05:16:38.680Z,67.39
2023-02-26T05:17:41.272Z,67.73
2023-02-26T05:18:44.847Z,67.97
2023-02-26T05:19:47.235Z,67.83
2023-02-26T05:20:54.979Z,67.32
2023-02-26T05:21:57.390Z,67.12
2023-02-26T05:23:01.072Z,66.47
2023-02-26T05:24:05.776Z,66.56
2023-02-26T05:25:10.551Z,66.54
2023-02-26T05:26:12.894Z,66.13
2023-02-26T05:27:16.803Z,65.79
2023-02-26T05:28:19.261Z,66.28
2023-02-26T05:29:22.804Z,65.59
2023-02-26T05:30:25.310Z,65.86
2023-02-26T05:31:30.061Z,67.02
2023-02-26T05:32:32.573Z,66.32
2023-02-26T05:33:36.117Z,66.12
2023-02-26T05:34:38.613Z,66.28
2023-02-26T05:35:42.172Z,64.37
2023-02-26T05:36:44.579Z,64.10
2023-02-26T05:37:48.097Z,65.11
2023-02-26T05:38:50.628Z,64.78
2023-02-26T05:39:55.768Z,65.39
2023-02-26T05:40:58.864Z,65.10
2023-02-26T05:42:02.361Z,66.76
2023-02-26T05:43:04.780Z,66.53
2023-02-26T05:44:09.299Z,67.29
2023-02-26T05:45:11.834Z,67.75
2023-02-26T05:46:15.452Z,67.94
2023-02-26T05:47:17.923Z,67.57
2023-02-26T05:48:21.516Z,67.35
2023-02-26T05:49:23.925Z,67.53
2023-02-26T05:50:27.434Z,67.06
2023-02-26T05:51:29.906Z,67.84
2023-02-26T05:52:33.700Z,67.45
2023-02-26T05:53:36.237Z,67.66
2023-02-26T05:54:39.673Z,67.22
2023-02-26T05:55:43.536Z,68.44
2023-02-26T05:56:46.949Z,67.49
2023-02-26T05:57:49.326Z,67.53
2023-02-26T05:58:52.878Z,67.32
2023-02-26T05:59:55.342Z,67.68
2023-02-26T06:01:00.226Z,67.95
2023-02-26T06:02:02.685Z,68.04
2023-02-26T06:03:06.559Z,68.38
2023-02-26T06:04:09.859Z,68.50
2023-02-26T06:05:13.465Z,68.66
2023-02-26T06:06:18.294Z,67.85
2023-02-26T06:07:21.792Z,68.08
2023-02-26T06:08:24.182Z,68.62
2023-02-26T06:09:27.768Z,69.49
2023-02-26T06:10:30.219Z,69.58
2023-02-26T06:11:35.101Z,68.91
2023-02-26T06:12:37.838Z,68.17
2023-02-26T06:13:41.583Z,69.70
2023-02-26T06:14:44.013Z,69.66
2023-02-26T06:15:48.757Z,69.67
2023-02-26T06:16:51.274Z,69.72
2023-02-26T06:17:54.759Z,69.84
2023-02-26T06:18:57.232Z,69.53
2023-02-26T06:20:01.063Z,69.55
2023-02-26T06:21:03.897Z,69.96
2023-02-26T06:22:07.298Z,69.86
2023-02-26T06:23:09.640Z,69.44
2023-02-26T06:24:13.199Z,70.02
2023-02-26T06:25:15.916Z,69.26
2023-02-26T06:26:19.463Z,69.04
2023-02-26T06:27:24.288Z,68.30
2023-02-26T06:28:28.244Z,69.12
2023-02-26T06:29:30.752Z,69.50
2023-02-26T06:30:34.334Z,67.54
2023-02-26T06:31:37.091Z,67.94
2023-02-26T06:32:40.763Z,67.59
2023-02-26T06:33:43.280Z,69.12
2023-02-26T06:34:46.726Z,69.45
2023-02-26T06:35:49.540Z,69.36
2023-02-26T06:36:52.990Z,68.51
2023-02-26T06:37:55.419Z,68.09
2023-02-26T06:38:58.924Z,68.86
2023-02-26T06:40:01.328Z,69.35
2023-02-26T06:41:04.994Z,69.04
2023-02-26T06:42:07.425Z,69.25
2023-02-26T06:43:12.396Z,68.92
2023-02-26T06:44:15.267Z,68.91
2023-02-26T06:45:18.887Z,69.06
2023-02-26T06:46:21.308Z,68.18
2023-02-26T06:47:25.145Z,69.08
2023-02-26T06:48:27.813Z,68.67
2023-02-26T06:49:31.335Z,68.63
2023-02-26T06:50:33.864Z,68.79
2023-02-26T06:51:37.598Z,68.90
2023-02-26T06:52:39.962Z,69.32
2023-02-26T06:53:43.533Z,69.57
2023-02-26T06:54:46.044Z,69.15
2023-02-26T06:55:52.302Z,69.37
2023-02-26T06:56:57.831Z,69.05
2023-02-26T06:58:01.281Z,69.80
2023-02-26T06:59:05.125Z,69.21
2023-02-26T07:00:11.681Z,69.71
2023-02-26T07:01:14.190Z,69.67
2023-02-26T07:02:19.451Z,69.28
2023-02-26T07:03:21.898Z,69.45
2023-02-26T07:04:25.666Z,68.45
2023-02-26T07:05:28.126Z,68.82
2023-02-26T07:06:32.461Z,68.36
2023-02-26T07:07:34.950Z,69.20
2023-02-26T07:08:38.734Z,68.96
2023-02-26T07:09:41.737Z,69.56
2023-02-26T07:10:46.332Z,69.14
2023-02-26T07:11:48.834Z,68.95
2023-02-26T07:12:52.505Z,69.22
2023-02-26T07:13:55.284Z,69.07
2023-02-26T07:15:00.166Z,69.04
2023-02-26T07:16:03.636Z,70.11
2023-02-26T07:17:06.122Z,71.25
2023-02-26T07:18:09.727Z,69.55
2023-02-26T07:19:12.113Z,69.66
2023-02-26T07:20:15.606Z,68.97
2023-02-26T07:21:18.022Z,69.90
2023-02-26T07:22:22.391Z,69.24
2023-02-26T07:23:24.802Z,68.44
2023-02-26T07:24:28.314Z,69.60
2023-02-26T07:25:30.674Z,69.92
2023-02-26T07:26:34.349Z,69.91
2023-02-26T07:27:37.319Z,70.31
2023-02-26T07:28:40.758Z,69.75
2023-02-26T07:29:43.343Z,70.59
2023-02-26T07:30:48.506Z,70.21
2023-02-26T07:31:51.145Z,70.11
2023-02-26T07:32:54.762Z,71.74
2023-02-26T07:33:57.391Z,72.54
2023-02-26T07:35:01.024Z,72.89
2023-02-26T07:36:03.500Z,72.66
2023-02-26T07:37:07.027Z,72.04
2023-02-26T07:38:09.538Z,72.87
2023-02-26T07:39:13.276Z,73.56
2023-02-26T07:40:16.287Z,74.06
2023-02-26T07:41:19.810Z,74.48
2023-02-26T07:42:22.230Z,75.04
2023-02-26T07:43:25.823Z,75.52
2023-02-26T07:44:28.213Z,74.98
2023-02-26T07:45:32.104Z,74.86
2023-02-26T07:46:36.076Z,75.58
2023-02-26T07:47:39.861Z,75.04
2023-02-26T07:48:42.339Z,75.71
2023-02-26T07:49:45.848Z,77.02
2023-02-26T07:50:48.329Z,77.18
2023-02-26T07:51:51.837Z,76.90
2023-02-26T07:52:54.388Z,76.52
2023-02-26T07:53:57.975Z,76.52
2023-02-26T07:55:00.435Z,76.82
2023-02-26T07:56:04.502Z,77.05
2023-02-26T07:57:06.878Z,76.43
2023-02-26T07:58:10.346Z,76.13
2023-02-26T07:59:12.851Z,77.31
2023-02-26T08:00:17.707Z,76.70
2023-02-26T08:01:20.182Z,77.28
2023-02-26T08:02:25.116Z,77.62
2023-02-26T08:03:28.701Z,77.61
2023-02-26T08:04:33.178Z,76.83
2023-02-26T08:05:37.505Z,76.22
2023-02-26T08:06:40.035Z,76.94
2023-02-26T08:07:43.410Z,76.39
2023-02-26T08:08:45.869Z,76.46
2023-02-26T08:09:49.402Z,77.28
2023-02-26T08:10:51.785Z,77.57
2023-02-26T08:11:55.248Z,78.08
2023-02-26T08:12:58.690Z,79.17
2023-02-26T08:14:01.116Z,78.40
2023-02-26T08:15:04.833Z,77.71
2023-02-26T08:16:07.312Z,77.38
2023-02-26T08:17:11.680Z,76.66
2023-02-26T08:18:15.560Z,76.06
2023-02-26T08:19:19.043Z,76.42
2023-02-26T08:20:21.674Z,75.60
2023-02-26T08:21:25.441Z,76.84
2023-02-26T08:22:27.986Z,76.38
2023-02-26T08:23:31.564Z,76.00
2023-02-26T08:24:34.091Z,77.45
2023-02-26T08:25:37.861Z,76.36
2023-02-26T08:26:40.265Z,76.88
2023-02-26T08:27:44.120Z,77.10
2023-02-26T08:28:47.543Z,77.69
2023-02-26T08:29:51.260Z,76.30
2023-02-26T08:30:54.350Z,76.69
2023-02-26T08:31:58.063Z,76.24
2023-02-26T08:33:00.502Z,76.75
2023-02-26T08:34:05.413Z,77.24
2023-02-26T08:35:09.380Z,77.80
2023-02-26T08:36:12.498Z,76.56
2023-02-26T08:37:16.569Z,75.43
2023-02-26T08:38:20.129Z,75.62
2023-02-26T08:39:23.689Z,75.90
2023-02-26T08:40:26.166Z,75.06
2023-02-26T08:41:32.488Z,76.20
2023-02-26T08:42:36.238Z,76.66
2023-02-26T08:43:39.052Z,75.76
2023-02-26T08:44:42.613Z,75.82
2023-02-26T08:45:46.703Z,75.67
2023-02-26T08:46:49.327Z,76.22
2023-02-26T08:47:56.967Z,76.61
2023-02-26T08:48:59.793Z,76.32
2023-02-26T08:50:06.293Z,76.28
2023-02-26T08:51:08.915Z,76.47
2023-02-26T08:52:12.423Z,76.12
2023-02-26T08:53:16.125Z,75.87
2023-02-26T08:54:18.553Z,76.48
2023-02-26T08:55:22.268Z,77.00
2023-02-26T08:56:26.433Z,76.92
2023-02-26T08:57:29.058Z,77.89
2023-02-26T08:58:32.861Z,77.81
2023-02-26T08:59:35.442Z,77.30
2023-02-26T09:00:38.936Z,77.22
2023-02-26T09:01:41.479Z,77.46
2023-02-26T09:02:45.052Z,78.00
2023-02-26T09:03:47.876Z,77.24
2023-02-26T09:04:51.763Z,77.91
2023-02-26T09:05:56.756Z,77.74
2023-02-26T09:06:59.276Z,77.51
2023-02-26T09:08:02.829Z,78.23
2023-02-26T09:09:05.445Z,77.82
2023-02-26T09:10:10.673Z,78.54
2023-02-26T09:11:13.482Z,78.61
2023-02-26T09:12:17.289Z,79.25
2023-02-26T09:13:19.884Z,79.67
2023-02-26T09:14:23.389Z,80.38
2023-02-26T09:15:25.807Z,80.63
2023-02-26T09:16:29.659Z,78.76
2023-02-26T09:17:32.389Z,78.62
2023-02-26T09:18:36.796Z,77.16
2023-02-26T09:19:39.369Z,77.21
2023-02-26T09:20:43.884Z,78.08
2023-02-26T09:21:47.838Z,76.16
2023-02-26T09:22:51.345Z,76.32
2023-02-26T09:23:53.696Z,74.82
2023-02-26T09:24:57.553Z,76.69
2023-02-26T09:26:01.074Z,76.85
2023-02-26T09:27:04.463Z,76.03
2023-02-26T09:28:07.199Z,75.51
2023-02-26T09:29:11.597Z,76.30
2023-02-26T09:30:14.809Z,76.51
2023-02-26T09:31:18.749Z,76.14
2023-02-26T09:32:21.437Z,74.15
2023-02-26T09:33:25.677Z,73.61
2023-02-26T09:34:28.264Z,71.22
2023-02-26T09:35:31.782Z,70.14
2023-02-26T09:36:35.306Z,69.95
2023-02-26T09:37:40.312Z,71.07
2023-02-26T09:38:44.397Z,70.48
2023-02-26T09:39:46.818Z,71.99
2023-02-26T09:40:54.125Z,72.13
2023-02-26T09:42:02.115Z,72.86
2023-02-26T09:43:21.288Z,73.16
2023-02-26T09:44:27.361Z,75.10
2023-02-26T09:45:35.082Z,74.70
2023-02-26T09:46:48.213Z,73.90
2023-02-26T09:47:53.771Z,72.29
2023-02-26T09:49:06.048Z,73.06
2023-02-26T09:50:16.516Z,71.32
2023-02-26T09:51:22.799Z,71.07
2023-02-26T09:52:31.164Z,69.57
2023-02-26T09:53:41.830Z,70.78
2023-02-26T09:54:48.179Z,69.24
2023-02-26T09:55:56.001Z,70.15
2023-02-26T09:57:01.304Z,69.19
2023-02-26T09:58:07.305Z,68.09
2023-02-26T09:59:10.623Z,67.93
2023-02-26T10:00:30.529Z,66.95
2023-02-26T10:01:43.869Z,66.16
2023-02-26T10:02:57.390Z,67.00
2023-02-26T10:04:24.914Z,68.81
2023-02-26T10:05:38.761Z,68.58
2023-02-26T10:06:52.750Z,69.28
2023-02-26T10:08:01.939Z,69.96
2023-02-26T10:09:26.386Z,69.54
2023-02-26T10:10:36.563Z,69.53
2023-02-26T10:11:48.981Z,70.32
2023-02-26T10:12:54.234Z,69.64
2023-02-26T10:14:02.161Z,69.25
2023-02-26T10:15:13.518Z,69.44
2023-02-26T10:16:23.884Z,71.13
2023-02-26T10:17:32.949Z,70.82
2023-02-26T10:18:41.592Z,70.04
2023-02-26T10:19:49.275Z,69.83
2023-02-26T10:20:57.390Z,69.66
2023-02-26T10:22:06.394Z,70.36
2023-02-26T10:23:19.458Z,69.99
2023-02-26T10:24:27.276Z,69.32
2023-02-26T10:25:37.394Z,69.26
2023-02-26T10:26:43.938Z,69.38
2023-02-26T10:27:54.996Z,68.81
2023-02-26T10:29:04.420Z,69.37
2023-02-26T10:30:15.744Z,68.56
2023-02-26T10:31:26.910Z,67.58
2023-02-26T10:32:36.247Z,66.71
2023-02-26T10:33:47.516Z,66.30
2023-02-26T10:34:57.118Z,65.20
2023-02-26T10:36:09.753Z,64.47
2023-02-26T10:37:19.816Z,64.25
2023-02-26T10:38:25.817Z,64.14
2023-02-26T10:39:34.779Z,62.20
2023-02-26T10:40:45.846Z,62.28
2023-02-26T10:41:49.430Z,60.91
2023-02-26T10:42:58.334Z,60.12
2023-02-26T10:44:07.424Z,56.90
2023-02-26T10:45:26.982Z,55.80
2023-02-26T10:46:39.441Z,55.74
2023-02-26T10:47:49.849Z,56.07
2023-02-26T10:49:18.760Z,54.91
2023-02-26T10:50:23.817Z,54.63
2023-02-26T10:51:38.167Z,53.28
2023-02-26T10:52:45.368Z,51.22
2023-02-26T10:53:52.958Z,51.31
2023-02-26T10:55:12.422Z,49.35
2023-02-26T10:56:20.815Z,48.59
2023-02-26T10:57:27.548Z,47.34
2023-02-26T10:58:31.059Z,46.77
2023-02-26T10:59:33.833Z,47.87
2023-02-26T11:00:37.219Z,45.82
2023-02-26T11:01:40.987Z,45.52
2023-02-26T11:02:47.367Z,44.31
2023-02-26T11:03:56.281Z,44.11
2023-02-26T11:05:07.192Z,44.90
2023-02-26T11:06:17.063Z,48.96
2023-02-26T11:07:19.718Z,48.29
2023-02-26T11:08:28.742Z,48.03
2023-02-26T11:09:36.205Z,48.61
2023-02-26T11:10:46.356Z,50.10
2023-02-26T11:11:52.123Z,51.10
2023-02-26T11:12:55.743Z,51.88
2023-02-26T11:13:58.053Z,51.02
2023-02-26T11:15:03.443Z,50.93
2023-02-26T11:16:12.885Z,46.88
2023-02-26T11:17:18.133Z,45.50
2023-02-26T11:18:27.717Z,46.31
2023-02-26T11:19:33.439Z,47.15
2023-02-26T11:20:39.927Z,46.54
2023-02-26T11:21:44.448Z,46.88
2023-02-26T11:22:50.598Z,46.00
2023-02-26T11:23:59.947Z,43.21
2023-02-26T11:25:04.534Z,43.97
2023-02-26T11:26:16.520Z,42.68
2023-02-26T11:27:22.267Z,43.35
2023-02-26T11:28:32.335Z,42.75
2023-02-26T11:29:38.781Z,45.08
2023-02-26T11:30:46.271Z,44.85
2023-02-26T11:31:51.835Z,47.14
2023-02-26T11:32:59.531Z,46.48
2023-02-26T11:34:05.209Z,49.09
2023-02-26T11:35:09.443Z,51.22
2023-02-26T11:36:16.571Z,50.80
2023-02-26T11:37:22.103Z,50.07
2023-02-26T11:38:28.983Z,49.81
2023-02-26T11:39:35.939Z,49.09
2023-02-26T11:40:42.161Z,50.52
2023-02-26T11:41:50.036Z,50.88
2023-02-26T11:42:56.225Z,49.97
2023-02-26T11:44:03.656Z,51.79
2023-02-26T11:45:07.540Z,48.91
2023-02-26T11:46:12.475Z,50.61
2023-02-26T11:47:17.191Z,50.84
2023-02-26T11:48:24.966Z,50.00
2023-02-26T11:49:29.701Z,49.41
2023-02-26T11:50:42.189Z,50.18
2023-02-26T11:51:49.108Z,49.89
2023-02-26T11:52:57.093Z,48.91
2023-02-26T11:54:02.945Z,47.98
2023-02-26T11:55:20.142Z,48.59
2023-02-26T11:56:30.956Z,46.95
2023-02-26T11:57:34.871Z,45.61
2023-02-26T11:58:40.942Z,46.10
2023-02-26T11:59:49.521Z,44.90
2023-02-26T12:00:53.916Z,45.69
2023-02-26T12:01:57.729Z,47.57
2023-02-26T12:03:02.797Z,46.77
2023-02-26T12:04:06.381Z,41.65
2023-02-26T12:05:15.938Z,41.61
2023-02-26T12:06:21.503Z,41.84
2023-02-26T12:07:24.001Z,42.43
2023-02-26T12:08:32.135Z,40.27
2023-02-26T12:09:34.602Z,41.83
2023-02-26T12:10:44.963Z,42.14
2023-02-26T12:12:04.063Z,42.57
2023-02-26T12:13:18.087Z,42.37
2023-02-26T12:14:42.930Z,42.94
2023-02-26T12:15:56.870Z,42.41
2023-02-26T12:17:08.251Z,41.34
2023-02-26T12:18:28.397Z,43.50
2023-02-26T12:19:42.136Z,42.21
2023-02-26T12:20:53.453Z,42.11
2023-02-26T12:22:14.629Z,43.67
2023-02-26T12:23:34.739Z,43.78
2023-02-26T12:25:13.156Z,43.46
2023-02-26T12:26:33.092Z,44.17
2023-02-26T12:27:47.899Z,45.10
2023-02-26T12:29:28.803Z,49.50
2023-02-26T12:30:49.435Z,52.90
2023-02-26T12:32:17.267Z,53.03
2023-02-26T12:33:33.778Z,53.47
2023-02-26T12:35:02.844Z,53.38
2023-02-26T12:36:21.902Z,54.83
2023-02-26T12:37:41.915Z,53.89
2023-02-26T12:38:53.904Z,55.60
2023-02-26T12:40:06.634Z,55.88
2023-02-26T12:41:26.103Z,56.94
2023-02-26T12:42:40.870Z,56.92
2023-02-26T12:43:48.222Z,57.28
2023-02-26T12:45:13.389Z,56.97
2023-02-26T12:46:27.855Z,57.69
2023-02-26T12:47:42.455Z,57.93
2023-02-26T12:49:05.776Z,57.94
2023-02-26T12:50:26.348Z,58.39
2023-02-26T12:51:42.255Z,58.16
2023-02-26T12:53:02.311Z,59.30
2023-02-26T12:54:21.997Z,58.18
2023-02-26T12:55:34.408Z,58.26
2023-02-26T12:57:10.955Z,57.35
2023-02-26T12:58:37.859Z,57.85
2023-02-26T13:00:05.157Z,56.92
2023-02-26T13:01:34.149Z,56.38
2023-02-26T13:03:14.493Z,57.38
2023-02-26T13:04:45.792Z,57.63
2023-02-26T13:06:23.991Z,57.42
2023-02-26T13:07:52.064Z,58.29
2023-02-26T13:09:03.704Z,58.32
2023-02-26T13:10:14.706Z,58.93
2023-02-26T13:11:41.923Z,59.49
2023-02-26T13:12:55.174Z,60.99
2023-02-26T13:14:16.189Z,61.32
2023-02-26T13:15:48.210Z,60.57
2023-02-26T13:16:58.802Z,61.10
2023-02-26T13:18:08.334Z,61.20
2023-02-26T13:19:20.791Z,60.33
2023-02-26T13:20:26.601Z,61.58
2023-02-26T13:21:34.790Z,61.36
2023-02-26T13:22:42.704Z,61.91
2023-02-26T13:23:51.952Z,61.80
2023-02-26T13:25:00.993Z,61.02
2023-02-26T13:26:09.224Z,61.25
2023-02-26T13:27:15.853Z,60.96
2023-02-26T13:28:26.542Z,60.76
2023-02-26T13:29:34.338Z,61.61
2023-02-26T13:30:44.884Z,61.82
2023-02-26T13:31:54.687Z,61.88
2023-02-26T13:33:00.707Z,60.98
2023-02-26T13:34:15.948Z,60.86
2023-02-26T13:35:23.231Z,60.72
2023-02-26T13:36:28.214Z,60.42
2023-02-26T13:37:34.324Z,60.93
2023-02-26T13:38:46.981Z,61.08
2023-02-26T13:39:58.843Z,60.85
2023-02-26T13:41:10.474Z,58.90
2023-02-26T13:42:27.662Z,59.36
2023-02-26T13:43:41.695Z,59.06
2023-02-26T13:44:55.613Z,58.22
2023-02-26T13:46:13.308Z,58.06
2023-02-26T13:47:36.057Z,58.57
2023-02-26T13:48:47.373Z,58.29
2023-02-26T13:50:03.383Z,57.83
2023-02-26T13:51:14.083Z,57.55
2023-02-26T13:52:27.730Z,58.30
2023-02-26T13:53:55.789Z,58.97
2023-02-26T13:54:59.786Z,58.94
2023-02-26T13:56:08.517Z,59.04
2023-02-26T13:57:27.304Z,59.09
2023-02-26T13:58:38.010Z,57.75
2023-02-26T13:59:54.177Z,58.73
2023-02-26T14:01:07.646Z,59.78
2023-02-26T14:02:45.998Z,60.29
2023-02-26T14:03:52.838Z,60.38
2023-02-26T14:04:58.079Z,60.42
2023-02-26T14:06:25.397Z,59.85
2023-02-26T14:07:50.679Z,59.33
2023-02-26T14:08:57.258Z,59.91
2023-02-26T14:10:03.429Z,59.77
2023-02-26T14:11:25.375Z,60.39
2023-02-26T14:12:39.558Z,61.60
2023-02-26T14:13:42.323Z,61.49
2023-02-26T14:15:06.956Z,60.82
2023-02-26T14:16:21.440Z,60.49
2023-02-26T14:17:38.818Z,60.60
2023-02-26T14:18:52.566Z,60.22
2023-02-26T14:20:18.122Z,60.06
2023-02-26T14:21:38.481Z,59.49
2023-02-26T14:22:43.595Z,59.25
2023-02-26T14:23:50.978Z,58.41
2023-02-26T14:24:55.281Z,58.80
2023-02-26T14:26:06.864Z,58.47
2023-02-26T14:27:32.606Z,59.05
2023-02-26T14:28:43.667Z,58.62
2023-02-26T14:30:02.422Z,58.53
2023-02-26T14:31:22.624Z,58.05